sensor_id;sensor_type;location;lat;lon;timestamp;pressure;altitude;pressure_sealevel;temperature;humidity
5550;BME280;2798;42.716;23.256;2022-08-01T00:00:36;94650.41;;;21.03;68.95
5550;BME280;2798;42.716;23.256;2022-08-01T00:03:01;94641.41;;;20.82;65.94
5550;BME280;2798;42.716;23.256;2022-08-01T00:05:27;94646.72;;;20.74;66.71
5550;BME280;2798;42.716;23.256;2022-08-01T00:07:52;94647.53;;;20.74;67.04
5550;BME280;2798;42.716;23.256;2022-08-01T00:10:18;94633.41;;;20.60;67.89
5550;BME280;2798;42.716;23.256;2022-08-01T00:12:44;94658.88;;;20.67;66.96
5550;BME280;2798;42.716;23.256;2022-08-01T00:15:12;94652.66;;;20.68;67.00
5550;BME280;2798;42.716;23.256;2022-08-01T00:17:38;94657.81;;;20.76;68.91
5550;BME280;2798;42.716;23.256;2022-08-01T00:20:06;94656.41;;;20.65;66.82
5550;BME280;2798;42.716;23.256;2022-08-01T00:22:32;94657.88;;;20.68;68.22
5550;BME280;2798;42.716;23.256;2022-08-01T00:24:58;94664.31;;;20.80;65.85
5550;BME280;2798;42.716;23.256;2022-08-01T00:27:23;94661.44;;;20.28;68.36
5550;BME280;2798;42.716;23.256;2022-08-01T00:29:48;94662.13;;;19.90;70.56
5550;BME280;2798;42.716;23.256;2022-08-01T00:32:14;94660.41;;;19.74;71.98
5550;BME280;2798;42.716;23.256;2022-08-01T00:34:39;94663.69;;;19.19;73.64
5550;BME280;2798;42.716;23.256;2022-08-01T00:37:05;94663.19;;;18.99;75.10
5550;BME280;2798;42.716;23.256;2022-08-01T00:39:30;94665.47;;;18.94;76.05
5550;BME280;2798;42.716;23.256;2022-08-01T00:42:16;94667.44;;;18.75;77.32
5550;BME280;2798;42.716;23.256;2022-08-01T00:44:42;94657.66;;;18.69;78.24
5550;BME280;2798;42.716;23.256;2022-08-01T00:47:07;94657.16;;;18.82;78.80
5550;BME280;2798;42.716;23.256;2022-08-01T00:49:33;94656.50;;;19.05;75.54
5550;BME280;2798;42.716;23.256;2022-08-01T00:51:59;94657.81;;;19.17;77.53
5550;BME280;2798;42.716;23.256;2022-08-01T00:54:26;94659.13;;;19.13;76.40
5550;BME280;2798;42.716;23.256;2022-08-01T00:56:52;94651.47;;;19.11;74.77
5550;BME280;2798;42.716;23.256;2022-08-01T00:59:20;94651.75;;;19.25;74.30
5550;BME280;2798;42.716;23.256;2022-08-01T01:01:46;94643.28;;;19.23;74.96
5550;BME280;2798;42.716;23.256;2022-08-01T01:04:11;94633.31;;;19.26;78.33
5550;BME280;2798;42.716;23.256;2022-08-01T01:09:44;94639.69;;;19.32;75.26
5550;BME280;2798;42.716;23.256;2022-08-01T01:17:32;94627.81;;;19.21;74.96
5550;BME280;2798;42.716;23.256;2022-08-01T01:19:59;94627.81;;;19.13;74.49
5550;BME280;2798;42.716;23.256;2022-08-01T01:25:23;94621.94;;;19.19;76.99
5550;BME280;2798;42.716;23.256;2022-08-01T01:28:05;94628.16;;;19.18;78.62
5550;BME280;2798;42.716;23.256;2022-08-01T01:30:33;94625.19;;;19.21;75.57
5550;BME280;2798;42.716;23.256;2022-08-01T01:33:02;94609.38;;;19.23;75.07
5550;BME280;2798;42.716;23.256;2022-08-01T01:35:32;94597.06;;;19.40;71.80
5550;BME280;2798;42.716;23.256;2022-08-01T01:38:09;94610.44;;;19.45;70.50
5550;BME280;2798;42.716;23.256;2022-08-01T01:40:36;94603.03;;;19.57;72.51
5550;BME280;2798;42.716;23.256;2022-08-01T01:43:02;94600.81;;;19.46;69.62
5550;BME280;2798;42.716;23.256;2022-08-01T01:45:28;94598.84;;;19.48;69.31
5550;BME280;2798;42.716;23.256;2022-08-01T01:47:55;94597.38;;;19.45;68.04
5550;BME280;2798;42.716;23.256;2022-08-01T01:50:23;94586.97;;;19.37;70.14
5550;BME280;2798;42.716;23.256;2022-08-01T01:52:50;94585.81;;;19.39;68.80
5550;BME280;2798;42.716;23.256;2022-08-01T01:55:18;94594.13;;;19.43;67.74
5550;BME280;2798;42.716;23.256;2022-08-01T01:57:45;94595.84;;;19.59;69.01
5550;BME280;2798;42.716;23.256;2022-08-01T02:00:12;94598.63;;;19.58;67.47
5550;BME280;2798;42.716;23.256;2022-08-01T02:02:40;94597.59;;;19.67;68.17
5550;BME280;2798;42.716;23.256;2022-08-01T02:05:09;94591.75;;;19.65;65.94
5550;BME280;2798;42.716;23.256;2022-08-01T02:07:36;94585.75;;;19.56;67.34
5550;BME280;2798;42.716;23.256;2022-08-01T02:10:04;94586.38;;;19.67;67.88
5550;BME280;2798;42.716;23.256;2022-08-01T02:12:33;94579.25;;;19.52;65.76
5550;BME280;2798;42.716;23.256;2022-08-01T02:15:01;94584.31;;;19.54;64.33
5550;BME280;2798;42.716;23.256;2022-08-01T02:17:27;94579.59;;;19.49;64.44
5550;BME280;2798;42.716;23.256;2022-08-01T02:19:54;94593.69;;;19.71;66.86
5550;BME280;2798;42.716;23.256;2022-08-01T02:28:07;94597.81;;;19.57;63.23
5550;BME280;2798;42.716;23.256;2022-08-01T02:30:35;94590.16;;;19.56;63.81
5550;BME280;2798;42.716;23.256;2022-08-01T02:33:07;94584.41;;;19.60;66.24
5550;BME280;2798;42.716;23.256;2022-08-01T02:35:37;94588.53;;;19.55;63.51
5550;BME280;2798;42.716;23.256;2022-08-01T02:38:05;94585.00;;;19.47;62.67
5550;BME280;2798;42.716;23.256;2022-08-01T02:40:32;94586.91;;;19.54;63.49
5550;BME280;2798;42.716;23.256;2022-08-01T02:43:01;94586.59;;;19.48;63.49
5550;BME280;2798;42.716;23.256;2022-08-01T02:45:27;94589.81;;;19.10;67.34
5550;BME280;2798;42.716;23.256;2022-08-01T02:47:57;94595.94;;;18.77;68.58
5550;BME280;2798;42.716;23.256;2022-08-01T02:50:24;94597.56;;;18.28;71.57
5550;BME280;2798;42.716;23.256;2022-08-01T02:52:52;94591.81;;;17.91;73.76
5550;BME280;2798;42.716;23.256;2022-08-01T02:55:20;94586.88;;;17.63;75.06
5550;BME280;2798;42.716;23.256;2022-08-01T02:57:46;94584.91;;;17.49;77.33
5550;BME280;2798;42.716;23.256;2022-08-01T03:00:15;94565.31;;;17.28;77.96
5550;BME280;2798;42.716;23.256;2022-08-01T03:02:42;94589.28;;;17.48;79.25
5550;BME280;2798;42.716;23.256;2022-08-01T03:05:10;94578.03;;;17.39;77.00
5550;BME280;2798;42.716;23.256;2022-08-01T03:07:37;94594.59;;;17.38;77.96
5550;BME280;2798;42.716;23.256;2022-08-01T03:10:04;94578.84;;;17.40;77.53
5550;BME280;2798;42.716;23.256;2022-08-01T03:12:33;94581.78;;;17.45;78.79
5550;BME280;2798;42.716;23.256;2022-08-01T03:15:00;94589.13;;;17.50;79.91
5550;BME280;2798;42.716;23.256;2022-08-01T03:17:28;94574.22;;;17.25;76.83
5550;BME280;2798;42.716;23.256;2022-08-01T03:19:56;94591.47;;;17.26;76.41
5550;BME280;2798;42.716;23.256;2022-08-01T03:22:24;94587.44;;;17.32;79.02
5550;BME280;2798;42.716;23.256;2022-08-01T03:24:52;94574.91;;;17.27;76.96
5550;BME280;2798;42.716;23.256;2022-08-01T03:27:20;94590.97;;;17.23;77.85
5550;BME280;2798;42.716;23.256;2022-08-01T03:29:48;94589.69;;;17.27;78.39
5550;BME280;2798;42.716;23.256;2022-08-01T03:32:16;94588.56;;;17.38;82.48
5550;BME280;2798;42.716;23.256;2022-08-01T03:34:43;94587.63;;;17.39;77.96
5550;BME280;2798;42.716;23.256;2022-08-01T03:37:23;94568.44;;;17.40;78.41
5550;BME280;2798;42.716;23.256;2022-08-01T03:39:57;94593.06;;;17.71;79.11
5550;BME280;2798;42.716;23.256;2022-08-01T03:42:32;94590.50;;;17.79;77.43
5550;BME280;2798;42.716;23.256;2022-08-01T03:45:02;94595.88;;;17.86;78.43
5550;BME280;2798;42.716;23.256;2022-08-01T03:47:32;94604.59;;;18.20;nan
5550;BME280;2798;42.716;23.256;2022-08-01T03:50:06;94578.66;;;18.10;72.70
5550;BME280;2798;42.716;23.256;2022-08-01T03:52:33;94592.19;;;18.22;74.90
5550;BME280;2798;42.716;23.256;2022-08-01T03:55:04;94592.38;;;18.37;75.67
5550;BME280;2798;42.716;23.256;2022-08-01T03:57:32;94592.69;;;18.50;72.32
5550;BME280;2798;42.716;23.256;2022-08-01T03:59:59;94595.31;;;18.50;69.28
5550;BME280;2798;42.716;23.256;2022-08-01T04:02:29;94598.25;;;18.47;71.07
5550;BME280;2798;42.716;23.256;2022-08-01T04:04:55;94592.38;;;18.45;69.64
5550;BME280;2798;42.716;23.256;2022-08-01T04:07:31;94606.31;;;18.11;71.21
5550;BME280;2798;42.716;23.256;2022-08-01T04:09:57;94600.03;;;18.13;70.98
5550;BME280;2798;42.716;23.256;2022-08-01T04:12:23;94592.38;;;18.12;70.92
5550;BME280;2798;42.716;23.256;2022-08-01T04:14:49;94607.53;;;18.25;70.69
5550;BME280;2798;42.716;23.256;2022-08-01T04:17:16;94602.16;;;18.26;71.94
5550;BME280;2798;42.716;23.256;2022-08-01T04:19:41;94611.75;;;18.26;73.74
5550;BME280;2798;42.716;23.256;2022-08-01T04:22:09;94604.03;;;18.08;74.02
5550;BME280;2798;42.716;23.256;2022-08-01T04:24:36;94602.03;;;17.85;76.37
5550;BME280;2798;42.716;23.256;2022-08-01T04:27:04;94607.19;;;17.60;78.86
5550;BME280;2798;42.716;23.256;2022-08-01T04:29:31;94605.25;;;17.70;79.00
5550;BME280;2798;42.716;23.256;2022-08-01T04:31:58;94613.56;;;17.74;80.47
5550;BME280;2798;42.716;23.256;2022-08-01T04:34:27;94592.03;;;17.47;82.20
5550;BME280;2798;42.716;23.256;2022-08-01T04:36:54;94607.88;;;17.78;81.63
5550;BME280;2798;42.716;23.256;2022-08-01T04:39:23;94602.88;;;17.85;79.65
5550;BME280;2798;42.716;23.256;2022-08-01T04:41:54;94609.63;;;18.21;80.33
5550;BME280;2798;42.716;23.256;2022-08-01T04:44:24;94614.38;;;18.34;78.53
5550;BME280;2798;42.716;23.256;2022-08-01T04:46:50;94620.38;;;18.35;77.49
5550;BME280;2798;42.716;23.256;2022-08-01T04:49:16;94610.91;;;18.17;79.13
5550;BME280;2798;42.716;23.256;2022-08-01T04:51:55;94620.13;;;17.95;80.25
5550;BME280;2798;42.716;23.256;2022-08-01T04:54:26;94618.91;;;17.64;84.21
5550;BME280;2798;42.716;23.256;2022-08-01T04:56:54;94607.72;;;17.72;83.05
5550;BME280;2798;42.716;23.256;2022-08-01T04:59:23;94618.72;;;18.09;79.38
5550;BME280;2798;42.716;23.256;2022-08-01T05:02:12;94612.22;;;18.46;77.85
5550;BME280;2798;42.716;23.256;2022-08-01T05:04:39;94618.72;;;18.59;75.56
5550;BME280;2798;42.716;23.256;2022-08-01T05:07:05;94616.94;;;18.59;77.54
5550;BME280;2798;42.716;23.256;2022-08-01T05:09:31;94606.53;;;18.76;76.72
5550;BME280;2798;42.716;23.256;2022-08-01T05:12:00;94605.69;;;18.75;75.70
5550;BME280;2798;42.716;23.256;2022-08-01T05:14:27;94602.47;;;18.48;77.97
5550;BME280;2798;42.716;23.256;2022-08-01T05:16:54;94606.69;;;18.74;78.57
5550;BME280;2798;42.716;23.256;2022-08-01T05:19:20;94603.38;;;18.97;76.99
5550;BME280;2798;42.716;23.256;2022-08-01T05:21:46;94597.69;;;18.94;75.41
5550;BME280;2798;42.716;23.256;2022-08-01T05:24:12;94614.94;;;18.95;76.89
5550;BME280;2798;42.716;23.256;2022-08-01T05:26:38;94618.38;;;18.87;77.39
5550;BME280;2798;42.716;23.256;2022-08-01T05:29:04;94611.53;;;18.94;77.28
5550;BME280;2798;42.716;23.256;2022-08-01T05:31:29;94608.28;;;19.00;76.59
5550;BME280;2798;42.716;23.256;2022-08-01T05:33:55;94607.91;;;19.20;76.24
5550;BME280;2798;42.716;23.256;2022-08-01T05:36:20;94600.03;;;19.37;76.49
5550;BME280;2798;42.716;23.256;2022-08-01T05:38:45;94610.34;;;19.62;74.77
5550;BME280;2798;42.716;23.256;2022-08-01T05:41:11;94618.13;;;19.70;71.20
5550;BME280;2798;42.716;23.256;2022-08-01T05:43:36;94613.06;;;19.77;72.46
5550;BME280;2798;42.716;23.256;2022-08-01T05:46:02;94609.88;;;19.90;72.98
5550;BME280;2798;42.716;23.256;2022-08-01T05:48:27;94617.31;;;20.10;73.31
5550;BME280;2798;42.716;23.256;2022-08-01T05:50:53;94615.88;;;20.31;71.63
5550;BME280;2798;42.716;23.256;2022-08-01T05:53:19;94615.09;;;20.45;72.09
5550;BME280;2798;42.716;23.256;2022-08-01T05:55:44;94619.81;;;20.65;67.38
5550;BME280;2798;42.716;23.256;2022-08-01T05:58:10;94622.91;;;20.69;65.89
5550;BME280;2798;42.716;23.256;2022-08-01T06:00:35;94613.69;;;20.58;67.76
5550;BME280;2798;42.716;23.256;2022-08-01T06:03:01;94619.84;;;20.80;65.51
5550;BME280;2798;42.716;23.256;2022-08-01T06:05:26;94615.72;;;20.86;64.11
5550;BME280;2798;42.716;23.256;2022-08-01T06:07:51;94630.91;;;21.06;60.40
5550;BME280;2798;42.716;23.256;2022-08-01T06:10:18;94621.00;;;21.16;57.40
5550;BME280;2798;42.716;23.256;2022-08-01T06:12:43;94623.97;;;21.28;57.10
5550;BME280;2798;42.716;23.256;2022-08-01T06:15:09;94628.66;;;21.33;56.49
5550;BME280;2798;42.716;23.256;2022-08-01T06:17:34;94615.84;;;21.38;53.72
5550;BME280;2798;42.716;23.256;2022-08-01T06:20:00;94622.28;;;21.35;54.59
5550;BME280;2798;42.716;23.256;2022-08-01T06:22:25;94640.56;;;21.51;54.11
5550;BME280;2798;42.716;23.256;2022-08-01T06:24:51;94608.38;;;21.35;54.89
5550;BME280;2798;42.716;23.256;2022-08-01T06:27:17;94628.84;;;21.46;55.71
5550;BME280;2798;42.716;23.256;2022-08-01T06:29:42;94618.09;;;21.56;56.07
5550;BME280;2798;42.716;23.256;2022-08-01T06:32:08;94610.72;;;21.60;56.26
5550;BME280;2798;42.716;23.256;2022-08-01T06:34:35;94620.53;;;21.73;54.53
5550;BME280;2798;42.716;23.256;2022-08-01T06:37:00;94603.72;;;21.82;53.88
5550;BME280;2798;42.716;23.256;2022-08-01T06:39:26;94612.38;;;21.83;55.54
5550;BME280;2798;42.716;23.256;2022-08-01T06:41:51;94610.97;;;22.02;52.71
5550;BME280;2798;42.716;23.256;2022-08-01T06:44:17;94606.97;;;21.84;53.02
5550;BME280;2798;42.716;23.256;2022-08-01T06:46:42;94612.00;;;21.86;54.86
5550;BME280;2798;42.716;23.256;2022-08-01T06:49:07;94596.63;;;21.98;54.65
5550;BME280;2798;42.716;23.256;2022-08-01T06:51:33;94588.03;;;22.04;53.92
5550;BME280;2798;42.716;23.256;2022-08-01T06:53:58;94595.84;;;22.19;54.53
5550;BME280;2798;42.716;23.256;2022-08-01T06:56:24;94597.25;;;22.22;53.91
5550;BME280;2798;42.716;23.256;2022-08-01T06:58:50;94590.88;;;22.31;52.80
5550;BME280;2798;42.716;23.256;2022-08-01T07:01:15;94597.88;;;22.46;52.68
5550;BME280;2798;42.716;23.256;2022-08-01T07:03:41;94596.56;;;22.35;54.45
5550;BME280;2798;42.716;23.256;2022-08-01T07:06:06;94600.13;;;22.49;52.60
5550;BME280;2798;42.716;23.256;2022-08-01T07:08:32;94579.34;;;22.26;53.71
5550;BME280;2798;42.716;23.256;2022-08-01T07:10:57;94577.28;;;22.43;53.39
5550;BME280;2798;42.716;23.256;2022-08-01T07:13:26;94591.88;;;22.52;53.42
5550;BME280;2798;42.716;23.256;2022-08-01T07:15:52;94598.84;;;22.60;51.69
5550;BME280;2798;42.716;23.256;2022-08-01T07:18:18;94602.56;;;22.29;52.38
5550;BME280;2798;42.716;23.256;2022-08-01T07:20:43;94594.78;;;22.35;52.70
5550;BME280;2798;42.716;23.256;2022-08-01T07:23:11;94619.84;;;22.45;51.55
5550;BME280;2798;42.716;23.256;2022-08-01T07:25:37;94598.94;;;22.30;52.06
5550;BME280;2798;42.716;23.256;2022-08-01T07:28:03;94612.00;;;22.23;52.23
5550;BME280;2798;42.716;23.256;2022-08-01T07:30:28;94599.69;;;22.23;52.30
5550;BME280;2798;42.716;23.256;2022-08-01T07:32:54;94599.94;;;22.29;53.11
5550;BME280;2798;42.716;23.256;2022-08-01T07:35:19;94604.06;;;22.38;53.20
5550;BME280;2798;42.716;23.256;2022-08-01T07:37:44;94612.31;;;22.13;52.58
5550;BME280;2798;42.716;23.256;2022-08-01T07:40:10;94594.84;;;21.98;53.82
5550;BME280;2798;42.716;23.256;2022-08-01T07:42:36;94607.69;;;22.15;52.77
5550;BME280;2798;42.716;23.256;2022-08-01T07:45:01;94603.59;;;22.28;53.33
5550;BME280;2798;42.716;23.256;2022-08-01T07:47:27;94596.25;;;22.45;53.21
5550;BME280;2798;42.716;23.256;2022-08-01T07:49:59;94592.50;;;22.54;53.05
5550;BME280;2798;42.716;23.256;2022-08-01T07:52:25;94595.84;;;22.63;53.03
5550;BME280;2798;42.716;23.256;2022-08-01T07:54:52;94593.09;;;22.78;52.55
5550;BME280;2798;42.716;23.256;2022-08-01T07:57:17;94594.63;;;22.94;51.52
5550;BME280;2798;42.716;23.256;2022-08-01T07:59:42;94601.91;;;22.92;51.85
5550;BME280;2798;42.716;23.256;2022-08-01T08:02:08;94609.13;;;22.90;51.54
5550;BME280;2798;42.716;23.256;2022-08-01T08:04:33;94595.63;;;22.93;50.49
5550;BME280;2798;42.716;23.256;2022-08-01T08:06:59;94583.09;;;22.89;50.69
5550;BME280;2798;42.716;23.256;2022-08-01T08:09:24;94602.41;;;23.09;51.10
5550;BME280;2798;42.716;23.256;2022-08-01T08:11:50;94601.44;;;23.17;51.60
5550;BME280;2798;42.716;23.256;2022-08-01T08:14:16;94597.97;;;23.10;51.19
5550;BME280;2798;42.716;23.256;2022-08-01T08:16:42;94618.41;;;23.21;50.22
5550;BME280;2798;42.716;23.256;2022-08-01T08:19:08;94597.19;;;23.16;50.67
5550;BME280;2798;42.716;23.256;2022-08-01T08:21:33;94600.00;;;23.15;51.23
5550;BME280;2798;42.716;23.256;2022-08-01T08:23:59;94597.97;;;23.10;49.52
5550;BME280;2798;42.716;23.256;2022-08-01T08:26:43;94595.78;;;23.20;50.50
5550;BME280;2798;42.716;23.256;2022-08-01T08:29:08;94591.41;;;23.34;48.68
5550;BME280;2798;42.716;23.256;2022-08-01T08:31:34;94617.34;;;23.44;48.57
5550;BME280;2798;42.716;23.256;2022-08-01T08:33:59;94589.50;;;23.50;49.24
5550;BME280;2798;42.716;23.256;2022-08-01T08:36:26;94601.47;;;23.60;48.28
5550;BME280;2798;42.716;23.256;2022-08-01T08:38:51;94586.88;;;23.57;47.79
5550;BME280;2798;42.716;23.256;2022-08-01T08:41:17;94625.34;;;23.71;46.31
5550;BME280;2798;42.716;23.256;2022-08-01T08:43:43;94604.25;;;23.51;45.66
5550;BME280;2798;42.716;23.256;2022-08-01T08:46:08;94598.84;;;23.60;47.15
5550;BME280;2798;42.716;23.256;2022-08-01T08:48:37;94596.03;;;23.68;47.47
5550;BME280;2798;42.716;23.256;2022-08-01T08:51:04;94601.69;;;23.65;47.28
5550;BME280;2798;42.716;23.256;2022-08-01T08:53:30;94602.28;;;23.60;46.35
5550;BME280;2798;42.716;23.256;2022-08-01T08:55:58;94577.44;;;23.63;46.21
5550;BME280;2798;42.716;23.256;2022-08-01T08:58:26;94587.38;;;23.74;46.29
5550;BME280;2798;42.716;23.256;2022-08-01T09:00:53;94590.75;;;23.61;45.80
5550;BME280;2798;42.716;23.256;2022-08-01T09:03:19;94607.72;;;23.58;45.47
5550;BME280;2798;42.716;23.256;2022-08-01T09:05:44;94582.84;;;23.54;44.93
5550;BME280;2798;42.716;23.256;2022-08-01T09:08:10;94595.41;;;23.66;45.93
5550;BME280;2798;42.716;23.256;2022-08-01T09:10:35;94583.69;;;23.68;45.35
5550;BME280;2798;42.716;23.256;2022-08-01T09:13:09;94575.81;;;23.62;45.35
5550;BME280;2798;42.716;23.256;2022-08-01T09:18:26;94583.78;;;23.89;42.31
5550;BME280;2798;42.716;23.256;2022-08-01T09:21:10;94582.13;;;23.88;43.31
5550;BME280;2798;42.716;23.256;2022-08-01T09:23:37;94580.13;;;23.90;43.91
5550;BME280;2798;42.716;23.256;2022-08-01T09:26:11;94570.47;;;23.97;43.43
5550;BME280;2798;42.716;23.256;2022-08-01T09:28:39;94575.88;;;23.82;44.03
5550;BME280;2798;42.716;23.256;2022-08-01T09:31:07;94571.22;;;23.91;44.40
5550;BME280;2798;42.716;23.256;2022-08-01T09:33:48;94580.34;;;23.95;43.57
5550;BME280;2798;42.716;23.256;2022-08-01T09:36:14;94556.13;;;24.06;44.83
5550;BME280;2798;42.716;23.256;2022-08-01T09:38:40;94552.53;;;24.21;44.95
5550;BME280;2798;42.716;23.256;2022-08-01T09:41:05;94572.75;;;24.27;46.18
5550;BME280;2798;42.716;23.256;2022-08-01T09:43:32;94558.78;;;24.34;46.34
5550;BME280;2798;42.716;23.256;2022-08-01T09:45:58;94556.38;;;24.46;46.38
5550;BME280;2798;42.716;23.256;2022-08-01T09:48:25;94561.00;;;24.64;45.43
5550;BME280;2798;42.716;23.256;2022-08-01T09:50:52;94570.91;;;24.68;44.99
5550;BME280;2798;42.716;23.256;2022-08-01T09:53:18;94571.53;;;24.84;43.29
5550;BME280;2798;42.716;23.256;2022-08-01T09:55:44;94569.09;;;24.89;42.89
5550;BME280;2798;42.716;23.256;2022-08-01T09:58:10;94565.25;;;24.99;43.23
5550;BME280;2798;42.716;23.256;2022-08-01T10:00:37;94572.53;;;25.03;44.08
5550;BME280;2798;42.716;23.256;2022-08-01T10:03:24;94561.59;;;24.93;42.97
5550;BME280;2798;42.716;23.256;2022-08-01T10:05:50;94554.31;;;25.02;43.17
5550;BME280;2798;42.716;23.256;2022-08-01T10:08:16;94567.22;;;25.17;42.82
5550;BME280;2798;42.716;23.256;2022-08-01T10:11:08;94569.41;;;25.27;42.62
5550;BME280;2798;42.716;23.256;2022-08-01T10:13:34;94558.06;;;25.26;43.21
5550;BME280;2798;42.716;23.256;2022-08-01T10:16:00;94564.75;;;25.29;42.57
5550;BME280;2798;42.716;23.256;2022-08-01T10:18:28;94541.72;;;25.11;43.22
5550;BME280;2798;42.716;23.256;2022-08-01T10:20:56;94526.34;;;25.01;44.12
5550;BME280;2798;42.716;23.256;2022-08-01T10:23:24;94541.25;;;25.34;43.62
5550;BME280;2798;42.716;23.256;2022-08-01T10:25:53;94542.44;;;25.38;43.70
5550;BME280;2798;42.716;23.256;2022-08-01T10:28:19;94565.25;;;25.58;42.52
5550;BME280;2798;42.716;23.256;2022-08-01T10:30:46;94538.72;;;25.53;43.51
5550;BME280;2798;42.716;23.256;2022-08-01T10:33:12;94554.16;;;25.42;42.38
5550;BME280;2798;42.716;23.256;2022-08-01T10:35:38;94558.66;;;25.28;42.30
5550;BME280;2798;42.716;23.256;2022-08-01T10:38:05;94549.94;;;25.35;41.11
5550;BME280;2798;42.716;23.256;2022-08-01T10:40:30;94543.38;;;25.51;42.04
5550;BME280;2798;42.716;23.256;2022-08-01T10:42:56;94543.69;;;25.29;41.66
5550;BME280;2798;42.716;23.256;2022-08-01T10:45:23;94549.38;;;25.26;41.75
5550;BME280;2798;42.716;23.256;2022-08-01T10:50:47;94536.19;;;25.33;41.52
5550;BME280;2798;42.716;23.256;2022-08-01T10:53:19;94562.56;;;25.12;42.73
5550;BME280;2798;42.716;23.256;2022-08-01T10:56:00;94543.72;;;25.15;43.57
5550;BME280;2798;42.716;23.256;2022-08-01T10:58:32;94536.25;;;25.12;42.65
5550;BME280;2798;42.716;23.256;2022-08-01T11:03:44;94542.09;;;25.21;42.61
5550;BME280;2798;42.716;23.256;2022-08-01T11:06:17;94560.09;;;25.31;42.51
5550;BME280;2798;42.716;23.256;2022-08-01T11:08:53;94537.53;;;25.49;42.05
5550;BME280;2798;42.716;23.256;2022-08-01T11:11:19;94524.59;;;25.40;41.85
5550;BME280;2798;42.716;23.256;2022-08-01T11:16:43;94510.63;;;25.40;42.75
5550;BME280;2798;42.716;23.256;2022-08-01T11:19:09;94525.38;;;25.48;43.13
5550;BME280;2798;42.716;23.256;2022-08-01T11:27:23;94511.06;;;25.23;43.38
5550;BME280;2798;42.716;23.256;2022-08-01T11:32:34;94535.28;;;25.46;42.39
5550;BME280;2798;42.716;23.256;2022-08-01T11:35:10;94526.41;;;25.47;42.22
5550;BME280;2798;42.716;23.256;2022-08-01T11:37:35;94516.81;;;25.59;42.20
5550;BME280;2798;42.716;23.256;2022-08-01T11:40:27;94512.94;;;25.68;42.32
5550;BME280;2798;42.716;23.256;2022-08-01T11:43:17;94506.97;;;25.80;41.71
5550;BME280;2798;42.716;23.256;2022-08-01T11:45:51;94525.19;;;25.88;42.52
5550;BME280;2798;42.716;23.256;2022-08-01T11:48:21;94534.75;;;25.83;41.79
5550;BME280;2798;42.716;23.256;2022-08-01T11:50:47;94516.69;;;25.40;42.48
5550;BME280;2798;42.716;23.256;2022-08-01T11:53:14;94526.63;;;25.38;42.42
5550;BME280;2798;42.716;23.256;2022-08-01T11:58:14;94521.34;;;25.45;43.08
5550;BME280;2798;42.716;23.256;2022-08-01T12:00:40;94515.88;;;25.40;42.76
5550;BME280;2798;42.716;23.256;2022-08-01T12:03:07;94520.19;;;25.34;43.66
5550;BME280;2798;42.716;23.256;2022-08-01T12:05:35;94537.50;;;25.62;43.14
5550;BME280;2798;42.716;23.256;2022-08-01T12:08:03;94520.47;;;25.65;42.58
5550;BME280;2798;42.716;23.256;2022-08-01T12:10:32;94503.16;;;25.76;42.34
5550;BME280;2798;42.716;23.256;2022-08-01T12:13:04;94524.38;;;25.88;41.86
5550;BME280;2798;42.716;23.256;2022-08-01T12:15:32;94491.47;;;25.65;42.18
5550;BME280;2798;42.716;23.256;2022-08-01T12:18:00;94512.00;;;25.88;42.03
5550;BME280;2798;42.716;23.256;2022-08-01T12:20:28;94510.59;;;25.86;42.20
5550;BME280;2798;42.716;23.256;2022-08-01T12:22:55;94502.34;;;26.08;41.43
5550;BME280;2798;42.716;23.256;2022-08-01T12:25:21;94489.75;;;26.10;40.76
5550;BME280;2798;42.716;23.256;2022-08-01T12:27:48;94511.41;;;26.12;41.51
5550;BME280;2798;42.716;23.256;2022-08-01T12:30:18;94518.03;;;25.96;41.58
5550;BME280;2798;42.716;23.256;2022-08-01T12:32:46;94499.78;;;25.94;41.54
5550;BME280;2798;42.716;23.256;2022-08-01T12:35:17;94516.47;;;26.13;42.11
5550;BME280;2798;42.716;23.256;2022-08-01T12:37:48;94501.38;;;26.34;40.29
5550;BME280;2798;42.716;23.256;2022-08-01T12:40:15;94497.09;;;26.33;41.41
5550;BME280;2798;42.716;23.256;2022-08-01T12:42:42;94491.00;;;26.33;42.02
5550;BME280;2798;42.716;23.256;2022-08-01T12:45:09;94504.91;;;26.65;40.20
5550;BME280;2798;42.716;23.256;2022-08-01T12:47:36;94483.22;;;26.63;40.62
5550;BME280;2798;42.716;23.256;2022-08-01T12:50:06;94493.72;;;26.89;40.98
5550;BME280;2798;42.716;23.256;2022-08-01T12:52:33;94505.47;;;26.93;40.20
5550;BME280;2798;42.716;23.256;2022-08-01T12:55:04;94496.25;;;27.02;40.27
5550;BME280;2798;42.716;23.256;2022-08-01T12:57:30;94487.81;;;27.12;40.73
5550;BME280;2798;42.716;23.256;2022-08-01T13:00:28;94480.28;;;27.28;39.99
5550;BME280;2798;42.716;23.256;2022-08-01T13:03:05;94494.41;;;27.52;39.77
5550;BME280;2798;42.716;23.256;2022-08-01T13:05:53;94490.88;;;27.59;39.12
5550;BME280;2798;42.716;23.256;2022-08-01T13:08:25;94459.84;;;27.54;39.47
5550;BME280;2798;42.716;23.256;2022-08-01T13:16:05;94474.31;;;27.21;40.57
5550;BME280;2798;42.716;23.256;2022-08-01T13:18:33;94470.31;;;27.30;39.64
5550;BME280;2798;42.716;23.256;2022-08-01T13:23:37;94487.09;;;27.36;40.00
5550;BME280;2798;42.716;23.256;2022-08-01T13:26:03;94483.84;;;27.52;39.83
5550;BME280;2798;42.716;23.256;2022-08-01T13:28:29;94473.19;;;27.59;39.58
5550;BME280;2798;42.716;23.256;2022-08-01T13:30:59;94471.22;;;27.85;38.65
5550;BME280;2798;42.716;23.256;2022-08-01T13:33:28;94480.50;;;27.76;39.66
5550;BME280;2798;42.716;23.256;2022-08-01T13:35:55;94479.16;;;27.85;39.08
5550;BME280;2798;42.716;23.256;2022-08-01T13:38:21;94470.91;;;27.63;38.68
5550;BME280;2798;42.716;23.256;2022-08-01T13:41:06;94468.56;;;27.55;39.72
5550;BME280;2798;42.716;23.256;2022-08-01T13:43:32;94466.91;;;27.42;39.14
5550;BME280;2798;42.716;23.256;2022-08-01T13:45:58;94473.94;;;27.48;39.47
5550;BME280;2798;42.716;23.256;2022-08-01T13:48:23;94455.53;;;27.41;40.32
5550;BME280;2798;42.716;23.256;2022-08-01T13:50:49;94473.69;;;27.68;40.01
5550;BME280;2798;42.716;23.256;2022-08-01T13:53:14;94456.03;;;27.81;39.23
5550;BME280;2798;42.716;23.256;2022-08-01T13:55:40;94454.81;;;27.95;38.76
5550;BME280;2798;42.716;23.256;2022-08-01T13:58:05;94455.50;;;28.02;39.21
5550;BME280;2798;42.716;23.256;2022-08-01T14:00:31;94470.00;;;28.24;38.30